Biggs Army Air Field (Fort Bliss)
KBIF : now visible

Airfield :











YOU CAN JOIN US ON...

 
LOGIN :

Register | Disclaimer

   EN    FR    IT 

 









Legend :    VFR   Marginal VFR   IFR   Intensive IFR   Very Intensive IFR
Visi :
Ceiling :
>= 8 km
>= 3000ft
5 to 8 km
1000 to 3000 ft
1500m to 5 km
500 to 1000 ft
800 to 1500m
200 to 500 ft
< 800m
< 200 ft
Symbols :   Thunderstorms  Fog  Heavy snow  Heavy precipitations  Wind > 20 kt






- Airport Elevation : 3946 ft


KBIF - Biggs Army Air Field (Fort Bliss)

CURRENT METAR :
  • 112058Z AUTO 29004KT 10SM CLR 38/06 A2996 RMK AO2 SLP064 T03830061 57019 $

EXPIRED METARs :
  • 111958Z AUTO 00000KT 10SM CLR 38/07 A2998 RMK AO2 SLP071 T03780071 $
  • 111858Z AUTO 01008KT 10SM CLR 37/07 A3000 RMK AO2 SLP078 T03700074 $

TAF TAF KBIF
Valid from the 11 at 14:00 until the 12 at 20:00 UTC


111408Z 1114/1220 VRB06KT 9999 SKC QNH2990INS
TEMPO 1118/1201 16010G15KT
BECMG 1203/1204 VRB06KT 9999 SCT150 QNH2995INS
TEMPO 1219/1220 13015G25KT VCTS SCT120CB TX39/1122Z TN19/1212Z
KZAB FIR / North America



MET'MAP, your aeronautical weather chart ! - Copyright ORBIFLY December 2007 - Disclaimer

ORBIFLY MET'MAP TEAM :

Programming & Development : Alexandra Zaïnal
Concept & original design : Baudouin d'Aumeries
Assistance for programming : Marc-Olivier Méhu
Technical & hardware support : Manuel Goepfert

Contact : metmap@orbifly.com




SOURCES & CREDITS :

   NOAA       Earth
Advisory